Time;durP1;ratioP1;P1;durP2;ratioP2;P2;SDS_P1;SDS_P2;PMS_P1;PMS_P2;Temp;Humidity;BMP_temperature;BMP_pressure;BME280_temperature;BME280_humidity;BME280_pressure;Samples;Min_cycle;Max_cycle;Signal;HPM_P1;HPM_P2
2021/09/10 00:01:09;;;;;;;25.65;12.45;;;;;;;10.63;84.78;94990.92;1706131;83;21003;-63
2021/09/10 00:03:35;;;;;;;28.05;12.88;;;;;;;10.63;85.10;94993.68;1703440;83;21061;-63
2021/09/10 00:06:02;;;;;;;23.60;13.93;;;;;;;10.64;85.08;94992.47;1704947;83;21098;-64
2021/09/10 00:08:30;;;;;;;23.52;12.58;;;;;;;10.62;84.90;94992.14;1705542;83;21535;-64
2021/09/10 00:10:58;;;;;;;26.15;12.95;;;;;;;10.63;85.17;94992.30;1708336;83;21040;-65
2021/09/10 00:13:26;;;;;;;25.60;12.25;;;;;;;10.64;84.92;94990.50;1709236;83;21046;-64
2021/09/10 00:15:52;;;;;;;26.30;11.65;;;;;;;10.63;84.66;94997.80;1709756;83;20994;-63
2021/09/10 00:18:19;;;;;;;21.10;12.18;;;;;;;10.60;84.52;94996.72;1709834;83;21181;-63
2021/09/10 00:20:47;;;;;;;21.23;12.00;;;;;;;10.60;84.52;94993.19;1709715;83;21026;-64
2021/09/10 00:23:14;;;;;;;17.98;11.63;;;;;;;10.62;84.39;94998.42;1704638;83;20979;-64
2021/09/10 00:25:42;;;;;;;23.00;11.43;;;;;;;10.62;84.22;94994.89;1705935;83;20967;-64
2021/09/10 00:28:08;;;;;;;17.60;11.35;;;;;;;10.61;83.79;95000.23;1707183;83;21058;-64
2021/09/10 00:30:36;;;;;;;24.95;10.90;;;;;;;10.59;83.83;95003.44;1705952;83;22046;-64
2021/09/10 00:33:02;;;;;;;21.07;11.05;;;;;;;10.59;83.53;94998.53;1708910;83;20979;-64
2021/09/10 00:35:29;;;;;;;24.63;12.43;;;;;;;10.55;83.21;95000.63;1707253;83;21022;-63
2021/09/10 00:37:55;;;;;;;25.68;11.78;;;;;;;10.49;83.10;94992.15;1711186;83;20963;-63
2021/09/10 00:40:22;;;;;;;26.02;13.18;;;;;;;10.44;83.36;95005.08;1706655;83;21426;-64
2021/09/10 00:42:50;;;;;;;35.38;15.50;;;;;;;10.40;83.49;94998.14;1708636;82;20999;-64
2021/09/10 00:45:17;;;;;;;33.67;14.73;;;;;;;10.34;83.79;94994.41;1705794;83;20976;-63
2021/09/10 00:47:44;;;;;;;29.18;14.75;;;;;;;10.33;84.34;94999.13;1709239;83;20966;-64
2021/09/10 00:50:11;;;;;;;35.55;15.63;;;;;;;10.33;84.30;94999.13;1709172;83;20958;-64
2021/09/10 00:52:37;;;;;;;26.90;15.08;;;;;;;10.33;84.28;94997.00;1683359;83;21427;-64
2021/09/10 00:55:05;;;;;;;38.70;16.30;;;;;;;10.31;84.19;94996.67;1711051;83;21120;-64
2021/09/10 00:57:32;;;;;;;25.95;12.28;;;;;;;10.30;84.25;94992.34;1713001;83;21411;-64
2021/09/10 00:59:59;;;;;;;22.67;11.63;;;;;;;10.27;83.74;94997.35;1707171;83;21078;-64
2021/09/10 01:02:25;;;;;;;22.87;12.20;;;;;;;10.13;83.71;94993.67;1707379;83;21007;-65
2021/09/10 01:04:52;;;;;;;24.60;12.18;;;;;;;10.05;84.06;94998.61;1714557;83;20982;-63
2021/09/10 01:07:19;;;;;;;24.77;12.50;;;;;;;10.03;84.28;95002.99;1710848;83;21155;-63
2021/09/10 01:09:48;;;;;;;24.98;12.53;;;;;;;10.02;84.35;95003.58;1710937;83;21435;-64
2021/09/10 01:12:14;;;;;;;24.80;12.53;;;;;;;10.02;84.70;95000.08;1706987;83;21097;-63
2021/09/10 01:14:41;;;;;;;21.30;11.73;;;;;;;10.02;84.82;95000.08;1706534;83;20954;-64
2021/09/10 01:17:08;;;;;;;32.63;15.83;;;;;;;10.00;84.96;95004.59;1695854;83;21475;-64
2021/09/10 01:19:36;;;;;;;27.05;13.35;;;;;;;9.96;84.90;95008.67;1708240;83;21741;-63
2021/09/10 01:22:05;;;;;;;27.67;14.15;;;;;;;9.93;84.84;95008.94;1710681;83;20974;-63
2021/09/10 01:24:39;;;;;;;33.20;13.68;;;;;;;9.88;84.91;95001.83;1707914;83;21014;-64
2021/09/10 01:27:06;;;;;;;35.52;14.70;;;;;;;9.86;84.87;95006.98;1710025;83;21483;-63
2021/09/10 01:29:34;;;;;;;31.90;14.07;;;;;;;9.81;85.00;95008.29;1685206;83;20935;-65
2021/09/10 01:32:02;;;;;;;38.58;15.38;;;;;;;9.77;84.96;95006.87;1705477;83;21117;-64
2021/09/10 01:34:28;;;;;;;31.93;15.50;;;;;;;9.74;84.99;95000.84;1707371;83;21531;-64
2021/09/10 01:36:57;;;;;;;33.05;14.70;;;;;;;9.72;85.01;95003.27;1706868;83;20971;-64
2021/09/10 01:39:23;;;;;;;32.35;13.30;;;;;;;9.72;85.01;95003.27;1707377;82;20986;-64
2021/09/10 01:41:50;;;;;;;38.65;14.35;;;;;;;9.71;84.78;95007.22;1709820;82;21050;-63
2021/09/10 01:44:16;;;;;;;26.02;13.30;;;;;;;9.70;84.97;95001.55;1709519;83;21120;-64
2021/09/10 01:46:43;;;;;;;34.58;14.70;;;;;;;9.70;84.77;95004.30;1706792;83;21424;-63
2021/09/10 01:49:10;;;;;;;26.40;13.60;;;;;;;9.65;84.88;95002.09;1705047;84;21534;-64
2021/09/10 01:51:38;;;;;;;31.52;13.80;;;;;;;9.62;84.73;95005.72;1708426;83;21027;-64
2021/09/10 01:54:04;;;;;;;21.97;12.47;;;;;;;9.56;84.51;94999.19;1706765;83;21475;-64
2021/09/10 01:56:31;;;;;;;32.05;14.38;;;;;;;9.52;84.63;95002.05;1706656;82;21141;-64
2021/09/10 01:58:59;;;;;;;24.98;12.70;;;;;;;9.51;84.80;94995.61;1704899;83;20971;-65
2021/09/10 02:01:30;;;;;;;32.03;13.00;;;;;;;9.50;84.83;94999.56;1707514;83;21537;-63
2021/09/10 02:03:58;;;;;;;24.52;12.80;;;;;;;9.41;84.98;94994.70;1707425;83;20963;-63
2021/09/10 02:06:25;;;;;;;28.10;12.70;;;;;;;9.32;84.97;95002.02;1700678;83;21007;-63
2021/09/10 02:08:52;;;;;;;23.18;12.30;;;;;;;9.24;85.16;94999.30;1708551;83;21103;-64
2021/09/10 02:11:19;;;;;;;24.00;13.00;;;;;;;9.20;85.24;94993.89;1709298;83;21536;-63
2021/09/10 02:13:47;;;;;;;27.60;12.88;;;;;;;9.19;85.17;94998.42;1706242;83;21098;-63
2021/09/10 02:16:15;;;;;;;23.38;13.20;;;;;;;9.20;85.18;94990.36;1705827;83;20931;-63
2021/09/10 02:18:42;;;;;;;20.52;12.60;;;;;;;9.19;85.07;94991.56;1708087;83;21467;-63
2021/09/10 02:21:09;;;;;;;21.40;12.20;;;;;;;9.17;85.28;94993.39;1702920;83;21131;-63
2021/09/10 02:23:36;;;;;;;23.15;12.98;;;;;;;9.16;85.35;94995.17;1707790;83;21037;-64
2021/09/10 02:26:03;;;;;;;24.15;12.18;;;;;;;9.14;85.46;95005.82;1712997;83;20962;-64
2021/09/10 02:28:30;;;;;;;24.52;12.37;;;;;;;9.13;85.63;94993.30;1709865;83;21042;-64
2021/09/10 02:30:57;;;;;;;24.35;11.43;;;;;;;9.16;85.54;94995.96;1710137;83;21038;-63
2021/09/10 02:33:24;;;;;;;24.27;11.73;;;;;;;9.12;85.09;94995.29;1710078;83;21112;-63
2021/09/10 02:35:51;;;;;;;17.73;12.20;;;;;;;9.06;84.89;94992.13;1706170;83;20968;-64
2021/09/10 02:38:18;;;;;;;18.12;11.50;;;;;;;9.02;84.97;94996.32;1707428;83;20963;-64
2021/09/10 02:40:45;;;;;;;24.43;13.48;;;;;;;9.03;85.05;94991.62;1706732;83;20980;-63
2021/09/10 02:43:12;;;;;;;33.63;15.40;;;;;;;9.03;85.36;94992.98;1706071;82;20987;-64
2021/09/10 02:45:39;;;;;;;28.52;13.32;;;;;;;9.05;85.39;94993.33;1705612;83;21917;-64
2021/09/10 02:48:06;;;;;;;30.27;14.07;;;;;;;9.07;85.38;94995.03;1703968;83;21050;-64
2021/09/10 02:50:33;;;;;;;23.12;12.93;;;;;;;9.04;85.30;94996.66;1706563;82;20947;-63
2021/09/10 02:53:00;;;;;;;22.70;13.00;;;;;;;9.04;85.43;94996.66;1712061;83;21535;-64
2021/09/10 02:55:29;;;;;;;24.92;13.18;;;;;;;9.02;85.22;94992.79;1707268;83;21495;-63
2021/09/10 02:57:56;;;;;;;26.40;13.05;;;;;;;9.00;85.37;94991.87;1704577;83;21121;-63
2021/09/10 03:00:22;;;;;;;25.55;12.75;;;;;;;9.00;85.36;94998.73;1710814;83;20963;-64
2021/09/10 03:02:50;;;;;;;21.27;12.43;;;;;;;8.99;85.14;94995.03;1708891;83;21565;-63
2021/09/10 03:07:34;;;;;;;20.68;11.90;;;;;;;8.92;84.76;94991.86;1764003;79;26339;-63
2021/09/10 03:10:02;;;;;;;21.85;12.20;;;;;;;8.84;84.47;94992.47;1730925;81;21059;-63
2021/09/10 03:12:29;;;;;;;16.52;11.33;;;;;;;8.81;84.76;94998.81;1735440;82;21174;-64
2021/09/10 03:14:57;;;;;;;24.75;13.35;;;;;;;8.81;84.79;95001.56;1734434;81;21415;-64
2021/09/10 03:17:24;;;;;;;24.55;13.10;;;;;;;8.79;85.02;94997.10;1729339;81;21007;-63
2021/09/10 03:19:52;;;;;;;30.48;13.32;;;;;;;8.82;85.11;94994.87;1718350;82;20974;-63
2021/09/10 03:22:21;;;;;;;27.70;13.32;;;;;;;8.85;85.08;94994.63;1721816;81;21121;-62
2021/09/10 03:24:47;;;;;;;27.82;12.98;;;;;;;8.81;85.04;95000.19;1727824;81;21161;-63
2021/09/10 03:27:14;;;;;;;24.47;13.22;;;;;;;8.76;85.23;94995.84;1747111;81;20926;-64
2021/09/10 03:29:41;;;;;;;35.88;15.23;;;;;;;8.70;85.25;94993.42;1740190;81;20923;-63
2021/09/10 03:32:08;;;;;;;27.13;13.13;;;;;;;8.67;85.66;94990.95;1720098;82;21687;-63
2021/09/10 03:34:34;;;;;;;24.82;12.30;;;;;;;8.67;85.23;94991.54;1723937;82;20990;-63
2021/09/10 03:37:02;;;;;;;28.10;13.30;;;;;;;8.62;84.95;94990.08;1729381;82;21149;-63
2021/09/10 03:39:30;;;;;;;25.40;12.80;;;;;;;8.57;85.14;94994.70;1731579;81;20978;-65
2021/09/10 03:41:56;;;;;;;45.30;15.75;;;;;;;8.58;85.24;94991.38;1720270;82;20994;-62
2021/09/10 03:44:23;;;;;;;30.85;14.83;;;;;;;8.57;85.35;94993.34;1725405;82;21033;-64
2021/09/10 03:46:52;;;;;;;24.32;14.33;;;;;;;8.58;85.31;94990.01;1732273;82;21461;-63
2021/09/10 03:49:20;;;;;;;25.65;15.30;;;;;;;8.54;85.32;94994.20;1734703;81;21030;-64
2021/09/10 03:51:48;;;;;;;32.30;13.93;;;;;;;8.52;85.33;94999.34;1743245;82;21573;-63
2021/09/10 03:54:15;;;;;;;25.35;13.65;;;;;;;8.47;85.32;94995.72;1717172;81;21018;-63
2021/09/10 03:56:42;;;;;;;26.65;13.80;;;;;;;8.46;85.48;95002.40;1723346;82;21007;-63
2021/09/10 03:59:09;;;;;;;25.90;14.87;;;;;;;8.49;85.47;95000.78;1733208;81;21088;-63
2021/09/10 04:01:35;;;;;;;27.75;13.83;;;;;;;8.51;85.53;95007.39;1732432;82;21187;-63
2021/09/10 04:04:02;;;;;;;20.72;11.88;;;;;;;8.53;85.28;95002.84;1729389;82;21470;-64
2021/09/10 04:06:29;;;;;;;21.00;11.95;;;;;;;8.56;84.88;95006.09;1716885;83;21103;-64
2021/09/10 04:08:55;;;;;;;23.70;12.55;;;;;;;8.59;84.55;95003.89;1710141;83;21436;-64
2021/09/10 04:11:22;;;;;;;22.35;13.30;;;;;;;8.56;84.42;95010.98;1701214;83;21015;-63
2021/09/10 04:13:49;;;;;;;28.25;13.28;;;;;;;8.58;84.45;95008.59;1697455;83;21562;-62
2021/09/10 04:16:17;;;;;;;28.23;14.78;;;;;;;8.60;84.26;95015.78;1680736;83;21454;-63
2021/09/10 04:18:44;;;;;;;31.27;14.53;;;;;;;8.59;84.29;95007.39;1707654;83;21012;-63
2021/09/10 04:21:13;;;;;;;26.45;16.30;;;;;;;8.59;84.45;95010.75;1673963;83;21000;-64
2021/09/10 04:23:41;;;;;;;29.52;15.45;;;;;;;8.58;84.64;95009.96;1703999;83;21036;-63
2021/09/10 04:26:08;;;;;;;40.33;18.17;;;;;;;8.60;85.08;95008.93;1708004;83;21134;-62
2021/09/10 04:28:35;;;;;;;34.25;16.23;;;;;;;8.64;84.99;95015.09;1703684;83;21547;-63
2021/09/10 04:31:01;;;;;;;29.40;15.90;;;;;;;8.64;85.20;95017.08;1683893;83;21180;-64
2021/09/10 04:33:29;;;;;;;45.50;15.72;;;;;;;8.65;85.11;95015.27;1681902;83;21509;-62
2021/09/10 04:35:56;;;;;;;70.03;17.40;;;;;;;8.67;84.80;95014.27;1672880;83;21064;-63
2021/09/10 04:38:23;;;;;;;75.22;17.92;;;;;;;8.68;84.86;95007.58;1676740;84;23271;-64
2021/09/10 04:40:50;;;;;;;39.42;16.60;;;;;;;8.68;84.98;95008.95;1682960;83;21116;-64
2021/09/10 04:43:18;;;;;;;30.68;16.62;;;;;;;8.67;85.23;95010.15;1708359;83;21011;-63
2021/09/10 04:45:46;;;;;;;30.70;14.13;;;;;;;8.71;85.42;95009.46;1672482;83;20967;-64
2021/09/10 04:48:13;;;;;;;49.38;14.47;;;;;;;8.75;85.33;95014.25;1684146;83;21018;-65
2021/09/10 04:50:40;;;;;;;24.95;14.45;;;;;;;8.78;85.28;95008.52;1694377;83;21162;-63
2021/09/10 04:53:07;;;;;;;25.80;14.25;;;;;;;8.82;85.25;95014.69;1685143;83;20959;-63
2021/09/10 04:55:33;;;;;;;26.45;13.75;;;;;;;8.84;85.32;95006.80;1686570;83;21475;-64
2021/09/10 04:58:00;;;;;;;23.47;14.85;;;;;;;8.88;85.41;95009.63;1712922;83;21553;-63
2021/09/10 05:00:28;;;;;;;25.40;13.30;;;;;;;8.88;85.50;95007.47;1715324;83;22011;-62
2021/09/10 05:02:55;;;;;;;29.12;13.08;;;;;;;8.92;85.64;95013.05;1709089;83;21197;-66
2021/09/10 05:05:22;;;;;;;25.08;13.85;;;;;;;8.97;85.42;95014.69;1703490;83;21080;-64
2021/09/10 05:07:50;;;;;;;27.48;14.43;;;;;;;9.00;85.39;95010.29;1691890;83;21057;-63
2021/09/10 05:10:17;;;;;;;20.48;12.58;;;;;;;9.06;85.46;95009.96;1704565;83;20985;-64
2021/09/10 05:12:43;;;;;;;27.15;13.58;;;;;;;9.07;85.46;95005.40;1700962;83;21487;-64
2021/09/10 05:15:11;;;;;;;31.60;12.55;;;;;;;9.11;85.72;95010.80;1697972;83;21184;-65
2021/09/10 05:17:38;;;;;;;17.45;10.93;;;;;;;9.19;85.94;95005.29;1690934;83;21466;-64
2021/09/10 05:20:08;;;;;;;22.95;9.38;;;;;;;9.29;86.00;95005.62;1697350;83;21066;-64
2021/09/10 05:22:35;;;;;;;27.42;13.20;;;;;;;9.42;86.18;95010.58;1686881;83;20988;-64
2021/09/10 05:25:07;;;;;;;27.55;13.93;;;;;;;9.55;86.27;95001.77;1716747;83;21024;-64
2021/09/10 05:27:34;;;;;;;20.55;11.55;;;;;;;9.71;86.33;95003.88;1707297;83;21153;-64
2021/09/10 05:30:01;;;;;;;44.45;17.10;;;;;;;9.87;86.07;95006.56;1680644;83;21131;-62
2021/09/10 05:32:30;;;;;;;37.60;15.58;;;;;;;10.02;85.76;95002.83;1698737;82;21078;-63
2021/09/10 05:34:56;;;;;;;24.85;14.78;;;;;;;10.13;85.87;95004.67;1692231;83;20991;-64
2021/09/10 05:37:25;;;;;;;19.00;11.75;;;;;;;10.27;85.90;95001.48;1705091;83;21021;-65
2021/09/10 05:39:52;;;;;;;19.98;11.25;;;;;;;10.39;85.77;94999.35;1678551;83;21179;-63
2021/09/10 05:42:18;;;;;;;35.40;21.60;;;;;;;10.53;85.81;95006.56;1700371;83;21059;-64
2021/09/10 05:44:45;;;;;;;23.83;15.00;;;;;;;10.71;85.67;95014.27;1705305;82;21488;-64
2021/09/10 05:47:12;;;;;;;35.00;15.93;;;;;;;10.89;85.29;95005.01;1671597;83;21233;-63
2021/09/10 05:49:39;;;;;;;32.42;15.08;;;;;;;11.06;85.02;95008.38;1681110;83;21006;-63
2021/09/10 05:52:10;;;;;;;22.55;13.88;;;;;;;11.23;84.55;95011.16;1671830;83;21065;-64
2021/09/10 05:54:37;;;;;;;24.92;14.75;;;;;;;11.32;83.88;95007.13;1704684;83;21530;-63
2021/09/10 05:57:05;;;;;;;19.73;11.85;;;;;;;11.37;83.69;95007.31;1698975;83;21041;-61
2021/09/10 05:59:34;;;;;;;20.30;12.15;;;;;;;11.43;83.26;95006.14;1691693;83;21506;-65
2021/09/10 06:02:00;;;;;;;18.85;12.25;;;;;;;11.46;82.91;95008.00;1680896;83;21137;-65
2021/09/10 06:04:29;;;;;;;30.72;12.95;;;;;;;11.51;82.97;95006.83;1685283;83;21171;-63
2021/09/10 06:06:55;;;;;;;29.12;12.70;;;;;;;11.66;82.75;95004.36;1674779;83;21081;-60
2021/09/10 06:09:22;;;;;;;22.00;12.18;;;;;;;11.78;82.38;95008.47;1666093;82;22044;-67
2021/09/10 06:11:49;;;;;;;23.42;12.75;;;;;;;11.88;81.76;95010.06;1698630;82;21511;-58
2021/09/10 06:14:16;;;;;;;26.33;11.55;;;;;;;11.98;81.47;95008.92;1689495;83;21084;-56
2021/09/10 06:16:45;;;;;;;20.10;10.80;;;;;;;12.09;81.16;95014.80;1684458;83;20985;-68
2021/09/10 06:19:13;;;;;;;35.03;15.10;;;;;;;12.22;80.93;95017.47;1697394;82;21050;-68
2021/09/10 06:21:41;;;;;;;28.73;12.78;;;;;;;12.35;80.66;95012.05;1678277;83;21084;-68
2021/09/10 06:24:09;;;;;;;29.63;12.90;;;;;;;12.50;80.55;95010.30;1663761;84;21407;-64
2021/09/10 06:26:36;;;;;;;19.87;11.70;;;;;;;12.67;80.34;95010.98;1643295;85;21105;-58
2021/09/10 06:29:03;;;;;;;26.65;10.75;;;;;;;12.86;79.90;95009.07;1686221;82;21669;-59
2021/09/10 06:31:30;;;;;;;32.53;10.75;;;;;;;13.05;79.49;95014.84;1681363;83;21711;-62
2021/09/10 06:33:57;;;;;;;13.30;8.05;;;;;;;13.23;78.78;94998.30;1681626;83;21049;-74
2021/09/10 06:36:24;;;;;;;9.73;7.42;;;;;;;13.35;76.85;95008.44;1692518;83;21496;-64
2021/09/10 06:38:51;;;;;;;11.08;7.83;;;;;;;13.38;75.91;95001.39;1695201;82;21725;-61
2021/09/10 06:41:18;;;;;;;16.97;7.75;;;;;;;13.41;75.21;95006.00;1686720;82;21750;-68
2021/09/10 06:43:46;;;;;;;19.55;10.55;;;;;;;13.47;75.04;95011.69;1692779;83;21071;-60
2021/09/10 06:46:14;;;;;;;17.32;8.28;;;;;;;13.54;75.05;95007.23;1682311;82;21058;-64
2021/09/10 06:48:41;;;;;;;20.48;8.93;;;;;;;13.65;74.71;95010.33;1679418;84;21044;-63
2021/09/10 06:51:07;;;;;;;12.68;8.20;;;;;;;13.77;74.30;95008.00;1687337;83;21086;-60
2021/09/10 06:53:35;;;;;;;15.10;8.38;;;;;;;13.90;73.74;95010.01;1682744;82;22536;-63
2021/09/10 06:56:03;;;;;;;15.93;8.08;;;;;;;14.05;73.26;95004.80;1699270;83;21010;-62
2021/09/10 06:58:34;;;;;;;15.15;9.10;;;;;;;14.16;72.52;95003.71;1691325;82;21058;-61
2021/09/10 07:01:03;;;;;;;15.08;7.22;;;;;;;14.26;72.27;95001.70;1682809;82;21152;-62
2021/09/10 07:03:30;;;;;;;22.73;7.35;;;;;;;14.40;71.70;94999.05;1694976;83;21448;-63
2021/09/10 07:05:57;;;;;;;23.52;9.18;;;;;;;14.53;71.29;94996.86;1698684;82;21400;-62
2021/09/10 07:08:26;;;;;;;18.37;8.90;;;;;;;14.62;70.75;94987.91;1690120;82;21466;-59
2021/09/10 07:10:54;;;;;;;15.13;7.65;;;;;;;14.72;70.66;94992.80;1687655;83;21170;-62
2021/09/10 07:13:21;;;;;;;16.07;8.13;;;;;;;14.84;70.29;94988.42;1664497;84;21030;-62
2021/09/10 07:15:48;;;;;;;10.53;7.90;;;;;;;14.95;70.01;94982.38;1672144;83;21875;-65
2021/09/10 07:18:15;;;;;;;10.75;7.25;;;;;;;15.03;69.34;94979.42;1675381;82;21140;-64
2021/09/10 07:20:42;;;;;;;11.40;7.42;;;;;;;15.14;68.90;94981.07;1662946;83;21069;-61
2021/09/10 07:23:09;;;;;;;25.05;8.08;;;;;;;15.23;68.82;94983.17;1674375;83;21177;-64
2021/09/10 07:25:37;;;;;;;12.20;6.92;;;;;;;15.33;68.87;94979.12;1681996;83;21025;-63
2021/09/10 07:28:04;;;;;;;10.48;7.17;;;;;;;15.46;68.98;94971.34;1662497;82;21052;-61
2021/09/10 07:30:32;;;;;;;11.08;7.15;;;;;;;15.58;68.86;94973.08;1690548;83;21126;-70
2021/09/10 07:32:59;;;;;;;15.98;7.22;;;;;;;15.69;67.52;94969.16;1693368;83;21000;-62
2021/09/10 07:35:31;;;;;;;11.88;6.87;;;;;;;15.80;66.96;94979.09;1704087;82;21060;-67
2021/09/10 07:37:58;;;;;;;12.35;7.53;;;;;;;15.90;66.68;94977.02;1679502;83;21495;-64
2021/09/10 07:40:25;;;;;;;11.33;6.92;;;;;;;16.02;66.24;94971.19;1664463;83;20998;-65
2021/09/10 07:42:52;;;;;;;12.35;6.90;;;;;;;16.11;65.99;94970.34;1692769;82;21297;-68
2021/09/10 07:45:19;;;;;;;12.10;7.62;;;;;;;16.23;65.29;94971.45;1670943;83;21124;-65
2021/09/10 07:47:46;;;;;;;12.70;7.95;;;;;;;16.32;64.88;94968.56;1688779;83;21093;-63
2021/09/10 07:50:13;;;;;;;15.68;7.58;;;;;;;16.43;64.39;94977.13;1675859;83;21033;-64
2021/09/10 07:52:41;;;;;;;15.78;7.33;;;;;;;16.56;63.72;94976.22;1702236;82;21014;-64
2021/09/10 07:55:09;;;;;;;8.03;5.62;;;;;;;16.69;63.04;94968.37;1696148;83;21114;-64
2021/09/10 07:57:36;;;;;;;14.87;6.62;;;;;;;16.85;62.35;94964.45;1699899;82;21022;-63
2021/09/10 08:00:06;;;;;;;11.83;6.35;;;;;;;17.00;61.12;94967.19;1645376;85;21062;-60
2021/09/10 08:02:40;;;;;;;8.75;5.45;;;;;;;17.12;60.27;94968.89;1639682;86;21083;-60
2021/09/10 08:05:06;;;;;;;11.35;5.65;;;;;;;17.23;59.59;94969.81;1606498;86;21138;-63
2021/09/10 08:07:33;;;;;;;11.43;6.22;;;;;;;17.37;59.76;94969.64;1643934;86;21202;-62
2021/09/10 08:10:02;;;;;;;18.87;9.10;;;;;;;17.50;58.69;94972.86;1651437;85;21102;-62
2021/09/10 08:12:29;;;;;;;11.43;6.78;;;;;;;17.62;58.23;94968.98;1644219;85;21038;-67
2021/09/10 08:14:56;;;;;;;29.37;19.23;;;;;;;17.75;58.06;94970.16;1642016;85;21095;-62
2021/09/10 08:17:23;;;;;;;13.00;7.37;;;;;;;17.88;57.70;94967.01;1629225;86;21688;-63
2021/09/10 08:19:50;;;;;;;22.98;12.70;;;;;;;18.04;57.08;94960.86;1625463;85;21847;-63
2021/09/10 08:22:19;;;;;;;13.75;5.90;;;;;;;18.18;55.95;94960.76;1642545;86;21540;-69
2021/09/10 08:24:47;;;;;;;9.70;5.72;;;;;;;18.29;54.77;94948.37;1656535;84;21055;-62
2021/09/10 08:27:14;;;;;;;18.92;10.98;;;;;;;18.41;54.42;94949.38;1632862;85;20969;-68
2021/09/10 08:29:40;;;;;;;14.70;5.55;;;;;;;18.54;53.86;94944.19;1611177;85;22334;-63
2021/09/10 08:32:07;;;;;;;12.68;5.97;;;;;;;18.69;53.50;94947.61;1679816;83;21781;-64
2021/09/10 08:34:35;;;;;;;14.33;5.97;;;;;;;18.80;53.87;94937.92;1709167;82;21107;-62
2021/09/10 08:37:02;;;;;;;13.08;6.47;;;;;;;18.93;54.24;94934.09;1697938;82;21042;-64
2021/09/10 08:39:29;;;;;;;14.20;5.78;;;;;;;19.04;54.93;94945.31;1672259;83;21104;-64
2021/09/10 08:41:56;;;;;;;9.60;6.05;;;;;;;19.16;55.26;94937.80;1664134;84;21310;-69
2021/09/10 08:44:24;;;;;;;13.48;5.30;;;;;;;19.25;55.42;94934.22;1694874;83;21795;-69
2021/09/10 08:46:51;;;;;;;6.70;5.70;;;;;;;19.35;55.58;94922.97;1704922;82;21080;-60
2021/09/10 08:49:18;;;;;;;7.65;5.67;;;;;;;19.50;55.78;94923.56;1677457;82;21130;-63
2021/09/10 08:51:45;;;;;;;11.83;6.03;;;;;;;19.62;55.74;94909.79;1691631;82;21109;-63
2021/09/10 08:54:12;;;;;;;14.58;6.67;;;;;;;19.81;55.19;94915.06;1682107;83;21104;-60
2021/09/10 08:56:40;;;;;;;15.53;6.53;;;;;;;19.96;53.20;94911.41;1661550;83;21596;-65
2021/09/10 08:59:09;;;;;;;10.75;6.97;;;;;;;20.15;53.00;94915.29;1681976;83;21069;-65
2021/09/10 09:01:51;;;;;;;15.83;8.60;;;;;;;20.31;52.98;94913.16;1659560;83;21104;-64
2021/09/10 09:04:19;;;;;;;13.32;9.30;;;;;;;20.48;53.17;94906.95;1667297;83;22003;-69
2021/09/10 09:06:55;;;;;;;9.40;6.05;;;;;;;20.66;51.96;94904.44;1684031;83;21613;-66
2021/09/10 09:09:46;;;;;;;9.60;5.00;;;;;;;20.83;51.36;94899.63;1694065;82;21791;-66
2021/09/10 09:12:24;;;;;;;11.10;5.65;;;;;;;21.01;50.71;94903.92;1683079;82;21100;-64
2021/09/10 09:15:01;;;;;;;8.13;4.80;;;;;;;21.20;50.82;94904.91;1687466;82;21114;-65
2021/09/10 09:17:34;;;;;;;8.73;5.47;;;;;;;21.38;50.30;94905.75;1696176;82;21040;-68
2021/09/10 09:20:24;;;;;;;8.53;5.22;;;;;;;21.53;49.66;94900.63;1688104;82;20986;-65
2021/09/10 09:22:55;;;;;;;9.00;5.50;;;;;;;21.67;49.11;94896.79;1682725;83;21133;-68
2021/09/10 09:25:33;;;;;;;6.20;4.95;;;;;;;21.83;47.80;94896.70;1678990;82;21047;-69
2021/09/10 09:28:29;;;;;;;9.43;4.80;;;;;;;22.03;48.42;94896.34;1688205;82;21066;-67
2021/09/10 09:31:01;;;;;;;7.28;4.92;;;;;;;22.27;47.17;94900.03;1689387;83;21068;-67
2021/09/10 09:33:37;;;;;;;10.10;4.80;;;;;;;22.58;45.61;94903.02;1685822;83;21014;-69
2021/09/10 09:36:06;;;;;;;7.67;5.17;;;;;;;22.81;44.26;94892.52;1681860;83;21955;-64
2021/09/10 09:38:35;;;;;;;6.37;5.03;;;;;;;23.08;44.37;94892.92;1677455;82;21030;-65
2021/09/10 09:41:11;;;;;;;7.30;4.50;;;;;;;23.38;44.19;94895.05;1674909;83;21150;-64
2021/09/10 09:43:43;;;;;;;10.72;4.95;;;;;;;23.67;42.91;94893.45;1691125;83;21289;-66
2021/09/10 09:46:15;;;;;;;9.33;4.80;;;;;;;23.91;41.17;94889.99;1706977;83;22386;-66
2021/09/10 09:48:46;;;;;;;9.30;4.65;;;;;;;24.15;40.82;94888.52;1704258;83;21769;-67
2021/09/10 09:51:16;;;;;;;11.88;5.47;;;;;;;24.37;39.89;94886.16;1700513;82;21504;-66
2021/09/10 09:53:43;;;;;;;9.25;6.00;;;;;;;24.60;38.56;94881.73;1697891;82;21040;-67
2021/09/10 09:56:10;;;;;;;7.78;5.60;;;;;;;24.86;38.23;94880.44;1694687;82;21054;-65
2021/09/10 09:58:40;;;;;;;19.45;11.57;;;;;;;25.14;37.07;94875.73;1687341;83;21239;-66
2021/09/10 10:01:09;;;;;;;17.60;9.63;;;;;;;25.44;36.91;94870.58;1696248;82;21223;-66
2021/09/10 10:03:41;;;;;;;16.10;8.68;;;;;;;25.75;35.86;94869.72;1677726;83;21107;-66
2021/09/10 10:06:23;;;;;;;14.10;8.30;;;;;;;26.16;36.21;94877.05;1665176;85;21154;-67
2021/09/10 10:09:03;;;;;;;16.85;6.53;;;;;;;26.59;34.82;94870.34;1679463;83;21057;-66
2021/09/10 10:11:43;;;;;;;9.18;4.58;;;;;;;27.11;34.77;94870.13;1697380;83;21054;-65
2021/09/10 10:14:15;;;;;;;10.85;4.72;;;;;;;27.63;32.75;94862.70;1700521;83;21129;-67
2021/09/10 10:16:45;;;;;;;10.30;4.37;;;;;;;28.01;33.24;94865.11;1701010;82;21047;-67
2021/09/10 10:19:27;;;;;;;18.05;5.17;;;;;;;28.40;31.09;94863.31;1698099;83;21535;-65
2021/09/10 10:21:57;;;;;;;10.45;4.30;;;;;;;28.63;31.00;94860.65;1694474;83;21019;-63
2021/09/10 10:24:45;;;;;;;5.22;3.90;;;;;;;29.02;30.13;94867.26;1648439;87;21070;-65
2021/09/10 10:27:46;;;;;;;6.75;4.33;;;;;;;29.29;29.18;94864.81;1645483;85;21130;-66
2021/09/10 10:30:21;;;;;;;6.40;3.62;;;;;;;29.43;29.24;94861.86;1622948;87;21094;-66
2021/09/10 10:32:51;;;;;;;6.25;4.50;;;;;;;29.70;28.07;94862.33;1675523;83;21009;-64
2021/09/10 10:35:40;;;;;;;5.65;3.72;;;;;;;29.85;27.19;94855.89;1682363;84;21005;-64
2021/09/10 10:38:11;;;;;;;3.55;2.98;;;;;;;29.91;25.61;94853.69;1665198;84;21141;-64
2021/09/10 10:40:49;;;;;;;3.75;2.92;;;;;;;29.96;26.58;94849.88;1674784;84;21189;-67
2021/09/10 10:43:29;;;;;;;5.62;3.37;;;;;;;30.14;27.26;94851.55;1683379;84;21085;-65
2021/09/10 10:46:05;;;;;;;4.47;2.67;;;;;;;30.38;26.75;94852.98;1681332;83;21053;-65
2021/09/10 10:48:38;;;;;;;12.05;3.30;;;;;;;30.65;25.47;94848.34;1661229;84;21096;-65
2021/09/10 10:51:20;;;;;;;6.47;3.17;;;;;;;30.91;24.06;94842.87;1619144;87;21259;-67
2021/09/10 10:53:58;;;;;;;5.62;3.80;;;;;;;31.00;24.24;94848.56;1625644;86;22283;-63
2021/09/10 10:56:39;;;;;;;9.70;4.05;;;;;;;30.99;24.98;94847.83;1651436;86;21038;-69
2021/09/10 10:59:21;;;;;;;7.92;3.47;;;;;;;30.99;24.53;94842.14;1646885;86;21086;-65
2021/09/10 11:02:25;;;;;;;4.97;3.00;;;;;;;31.13;25.68;94849.08;1659562;85;21066;-66
2021/09/10 11:04:51;;;;;;;;;;;;;;;31.45;24.90;94842.56;1699018;82;21546;-65
2021/09/10 11:07:21;;;;;;;5.17;3.50;;;;;;;31.79;25.25;94840.54;1706607;82;20176;-67
2021/09/10 11:10:09;;;;;;;3.92;3.02;;;;;;;32.08;23.48;94836.61;1698262;83;21151;-65
2021/09/10 11:12:39;;;;;;;5.05;2.60;;;;;;;32.20;23.22;94838.33;1690734;83;21044;-64
2021/09/10 11:15:23;;;;;;;8.23;3.20;;;;;;;32.26;22.35;94834.55;1689594;83;21036;-66
2021/09/10 11:18:01;;;;;;;4.83;3.50;;;;;;;32.30;23.17;94832.02;1712606;82;21133;-65
2021/09/10 11:20:44;;;;;;;3.62;3.00;;;;;;;32.57;21.95;94830.72;1697583;83;21786;-66
2021/09/10 11:23:14;;;;;;;4.28;2.95;;;;;;;32.65;23.16;94830.62;1697479;82;21018;-69
2021/09/10 11:25:52;;;;;;;8.48;3.65;;;;;;;32.66;23.46;94827.19;1684415;82;21157;-67
2021/09/10 11:28:20;;;;;;;7.22;3.80;;;;;;;32.66;23.60;94832.13;1691110;82;21052;-64
2021/09/10 11:30:49;;;;;;;9.80;4.25;;;;;;;32.90;23.54;94821.25;1709307;82;21039;-67
2021/09/10 11:33:17;;;;;;;4.80;2.92;;;;;;;33.26;23.12;94823.48;1697596;82;21821;-77
2021/09/10 11:35:46;;;;;;;4.72;3.20;;;;;;;33.65;22.95;94827.18;1701813;83;21661;-68